Time;durP1;ratioP1;P1;durP2;ratioP2;P2;SDS_P1;SDS_P2;PMS_P1;PMS_P2;Temp;Humidity;BMP_temperature;BMP_pressure;BME280_temperature;BME280_humidity;BME280_pressure;Samples;Min_cycle;Max_cycle;Signal;HPM_P1;HPM_P2
2022/03/28 00:01:51;;;;;;;25.60;11.52;;;;;;;5.60;80.13;102538.38;4991487;28;20367;-72
2022/03/28 00:04:16;;;;;;;26.42;10.30;;;;;;;5.54;80.22;102537.69;5008980;28;20029;-72
2022/03/28 00:06:42;;;;;;;24.67;10.13;;;;;;;5.50;80.60;102536.88;5012610;28;20042;-72
2022/03/28 00:09:07;;;;;;;21.80;9.35;;;;;;;5.46;80.91;102529.88;5012682;28;20117;-72
2022/03/28 00:11:33;;;;;;;27.02;10.05;;;;;;;5.43;80.63;102529.94;5011297;28;20405;-72
2022/03/28 00:13:59;;;;;;;24.88;8.68;;;;;;;5.39;81.30;102521.16;5012685;28;20033;-72
2022/03/28 00:16:24;;;;;;;25.05;10.20;;;;;;;5.39;80.96;102513.16;5011706;28;20029;-72
2022/03/28 00:18:49;;;;;;;24.98;10.05;;;;;;;5.40;81.47;102514.00;5010897;28;20365;-72
2022/03/28 00:21:15;;;;;;;24.50;10.13;;;;;;;5.37;81.13;102503.44;5010659;28;20041;-72
2022/03/28 00:23:41;;;;;;;24.88;8.88;;;;;;;5.34;80.82;102509.69;5007613;28;20441;-72
2022/03/28 00:26:06;;;;;;;22.70;9.02;;;;;;;5.29;81.44;102502.75;5011208;28;20026;-72
2022/03/28 00:28:31;;;;;;;31.85;10.32;;;;;;;5.23;81.09;102504.66;5012483;28;20088;-72
2022/03/28 00:30:57;;;;;;;26.58;10.50;;;;;;;5.13;81.37;102497.78;5011158;28;20109;-72
2022/03/28 00:33:22;;;;;;;25.15;9.70;;;;;;;5.08;81.51;102500.56;5011070;28;20072;-72
2022/03/28 00:35:47;;;;;;;26.98;9.80;;;;;;;5.05;81.89;102491.75;5011380;28;20473;-72
2022/03/28 00:38:13;;;;;;;24.13;10.57;;;;;;;5.03;81.87;102485.59;5000374;28;20025;-72
2022/03/28 00:40:38;;;;;;;26.02;10.05;;;;;;;5.00;81.96;102486.53;5010952;28;20030;-72
2022/03/28 00:43:06;;;;;;;23.75;9.30;;;;;;;4.97;81.90;102480.41;5012123;28;20041;-72
2022/03/28 00:45:33;;;;;;;25.73;11.50;;;;;;;4.90;82.30;102475.22;5012062;28;20116;-72
2022/03/28 00:47:59;;;;;;;27.50;10.13;;;;;;;4.89;82.72;102484.13;5011969;28;20504;-72
2022/03/28 00:50:25;;;;;;;24.00;9.73;;;;;;;4.88;82.65;102474.38;5012093;28;20041;-72
2022/03/28 00:52:51;;;;;;;24.38;10.30;;;;;;;4.87;82.45;102475.28;5010817;28;20382;-72
2022/03/28 00:55:17;;;;;;;26.50;10.95;;;;;;;4.85;82.63;102477.13;4997110;28;20045;-72
2022/03/28 00:57:42;;;;;;;22.58;9.38;;;;;;;4.82;82.63;102474.53;5011946;28;20049;-72
2022/03/28 01:00:10;;;;;;;27.75;9.50;;;;;;;4.79;82.39;102468.38;5001811;28;20198;-72
2022/03/28 01:02:37;;;;;;;22.88;9.63;;;;;;;4.79;83.04;102463.03;4997180;28;20405;-73
2022/03/28 01:05:02;;;;;;;24.77;10.05;;;;;;;4.79;82.77;102461.28;5009779;28;20038;-73
2022/03/28 01:07:28;;;;;;;26.15;9.55;;;;;;;4.79;82.12;102453.28;4998868;28;20846;-73
2022/03/28 01:09:55;;;;;;;22.48;9.65;;;;;;;4.76;82.41;102453.38;5011762;28;20044;-73
2022/03/28 01:12:22;;;;;;;25.13;9.32;;;;;;;4.74;82.37;102455.16;5011482;28;20037;-73
2022/03/28 01:14:49;;;;;;;22.55;9.18;;;;;;;4.71;82.19;102456.13;5007036;28;20165;-73
2022/03/28 01:19:58;;;;;;;24.65;9.00;;;;;;;4.65;82.58;102447.41;5011502;28;20032;-73
2022/03/28 01:22:23;;;;;;;23.77;9.68;;;;;;;4.63;82.53;102439.44;5002523;28;20485;-73
2022/03/28 01:24:48;;;;;;;23.25;9.30;;;;;;;4.63;82.85;102443.91;5008639;28;20151;-73
2022/03/28 01:27:14;;;;;;;26.83;9.40;;;;;;;4.60;82.66;102438.63;5011831;28;20029;-73
2022/03/28 01:29:42;;;;;;;27.77;10.05;;;;;;;4.59;82.72;102434.22;5009140;28;20652;-73
2022/03/28 01:32:08;;;;;;;27.50;10.10;;;;;;;4.58;83.00;102432.47;5011522;28;20493;-73
2022/03/28 01:34:34;;;;;;;22.00;9.07;;;;;;;4.53;82.65;102430.78;5010262;28;20044;-73
2022/03/28 01:36:59;;;;;;;23.00;8.93;;;;;;;4.49;82.60;102425.56;5011191;28;20057;-73
2022/03/28 01:39:26;;;;;;;24.33;9.43;;;;;;;4.47;83.16;102422.06;5010036;28;20064;-73
2022/03/28 01:41:51;;;;;;;26.73;8.70;;;;;;;4.46;82.47;102415.84;5005402;28;20529;-73
2022/03/28 01:44:16;;;;;;;21.38;9.10;;;;;;;4.45;82.74;102415.88;5009509;28;20057;-73
2022/03/28 01:46:47;;;;;;;25.13;8.52;;;;;;;4.41;83.13;102417.75;5009957;28;20026;-73
2022/03/28 01:49:13;;;;;;;23.67;8.98;;;;;;;4.36;83.76;102420.53;5011304;28;20037;-73
2022/03/28 01:51:39;;;;;;;22.38;8.63;;;;;;;4.36;83.13;102422.28;5010120;28;20065;-73
2022/03/28 01:54:07;;;;;;;24.25;9.27;;;;;;;4.33;82.78;102427.69;5010613;28;20033;-73
2022/03/28 01:56:36;;;;;;;26.80;8.88;;;;;;;4.31;83.16;102418.88;5009628;28;20033;-73
2022/03/28 01:59:03;;;;;;;26.48;10.45;;;;;;;4.27;83.25;102426.03;5009880;28;20041;-73
2022/03/28 02:01:28;;;;;;;23.80;9.38;;;;;;;4.24;83.57;102422.56;4988607;28;20046;-73
2022/03/28 02:03:53;;;;;;;27.52;9.48;;;;;;;4.20;83.20;102416.41;5006456;28;20366;-73
2022/03/28 02:06:19;;;;;;;25.85;9.50;;;;;;;4.21;82.74;102415.53;5010796;28;20386;-73
2022/03/28 02:08:44;;;;;;;25.83;9.65;;;;;;;4.20;82.95;102414.66;5011092;28;20038;-73
2022/03/28 02:11:10;;;;;;;25.02;8.82;;;;;;;4.17;82.83;102412.06;5010885;28;20033;-73
2022/03/28 02:13:35;;;;;;;25.60;9.15;;;;;;;4.14;83.28;102416.56;5005533;28;20033;-73
2022/03/28 02:16:00;;;;;;;27.95;9.18;;;;;;;4.12;83.43;102407.75;5009007;28;20037;-73
2022/03/28 02:18:26;;;;;;;29.73;9.98;;;;;;;4.08;83.67;102412.22;5009109;28;20029;-73
2022/03/28 02:20:52;;;;;;;25.08;9.88;;;;;;;4.05;83.40;102414.97;5010926;28;20083;-73
2022/03/28 02:23:17;;;;;;;23.63;8.73;;;;;;;4.04;83.70;102402.56;5009198;28;20022;-73
2022/03/28 02:25:42;;;;;;;24.35;9.00;;;;;;;4.06;83.97;102390.13;5011023;28;20494;-73
2022/03/28 02:28:08;;;;;;;25.00;9.07;;;;;;;4.07;83.87;102396.31;5009405;28;20021;-73
2022/03/28 02:30:33;;;;;;;24.70;8.85;;;;;;;4.06;83.37;102398.09;5005209;28;20050;-73
2022/03/28 02:32:59;;;;;;;24.45;9.02;;;;;;;4.03;83.30;102392.84;5009426;28;20036;-73
2022/03/28 02:35:25;;;;;;;24.73;9.07;;;;;;;4.01;83.40;102397.31;5010715;28;20462;-73
2022/03/28 02:37:50;;;;;;;23.55;8.40;;;;;;;3.96;83.57;102389.44;5010874;28;20037;-73
2022/03/28 02:40:16;;;;;;;23.73;8.77;;;;;;;3.91;83.50;102379.78;5010250;28;20045;-73
2022/03/28 02:42:42;;;;;;;24.38;9.13;;;;;;;3.88;83.27;102378.09;4992742;28;20100;-73
2022/03/28 02:45:08;;;;;;;21.00;8.40;;;;;;;3.86;83.89;102369.25;5009614;28;20029;-73
2022/03/28 02:47:34;;;;;;;24.10;9.88;;;;;;;3.87;84.09;102375.47;4995552;28;20500;-73
2022/03/28 02:50:00;;;;;;;27.38;10.50;;;;;;;3.84;84.14;102374.59;5010698;28;20064;-73
2022/03/28 02:52:25;;;;;;;27.70;9.73;;;;;;;3.82;84.65;102367.56;5010825;28;20030;-73
2022/03/28 02:54:50;;;;;;;22.35;9.55;;;;;;;3.79;84.65;102372.94;5012029;28;20025;-73
2022/03/28 02:57:16;;;;;;;21.77;8.40;;;;;;;3.75;84.10;102361.50;5014396;28;20037;-73
2022/03/28 02:59:41;;;;;;;26.20;10.13;;;;;;;3.73;84.74;102367.75;5007112;28;20034;-73
2022/03/28 03:02:07;;;;;;;28.50;9.25;;;;;;;3.70;84.66;102358.03;4996296;28;20069;-73
2022/03/28 03:04:33;;;;;;;22.83;9.57;;;;;;;3.66;84.16;102362.56;5013021;28;20042;-73
2022/03/28 03:06:58;;;;;;;27.02;10.13;;;;;;;3.65;84.69;102359.94;5012497;28;20513;-73
2022/03/28 03:09:24;;;;;;;26.13;9.13;;;;;;;3.65;85.05;102354.63;5013901;28;20109;-73
2022/03/28 03:11:49;;;;;;;30.45;9.65;;;;;;;3.64;85.06;102353.72;5014122;28;20026;-73
2022/03/28 03:14:15;;;;;;;22.15;8.88;;;;;;;3.61;84.49;102345.81;5012380;28;20487;-73
2022/03/28 03:16:43;;;;;;;28.83;9.77;;;;;;;3.60;85.00;102343.19;5013999;28;20371;-73
2022/03/28 03:19:09;;;;;;;23.55;8.15;;;;;;;3.59;84.84;102339.66;5011183;28;20481;-73
2022/03/28 03:21:35;;;;;;;27.25;9.73;;;;;;;3.56;84.50;102352.13;5013748;28;20436;-73
2022/03/28 03:24:01;;;;;;;25.50;9.80;;;;;;;3.54;84.42;102340.66;5012255;28;20022;-73
2022/03/28 03:26:27;;;;;;;25.48;8.98;;;;;;;3.51;84.53;102344.25;5013971;28;20100;-73
2022/03/28 03:28:55;;;;;;;27.67;9.57;;;;;;;3.51;84.44;102349.56;5012035;28;20072;-73
2022/03/28 03:31:23;;;;;;;25.25;9.38;;;;;;;3.52;84.75;102337.16;5011915;28;20048;-73
2022/03/28 03:33:49;;;;;;;25.33;8.98;;;;;;;3.52;84.90;102343.34;5012327;28;20049;-73
2022/03/28 03:36:14;;;;;;;24.20;9.90;;;;;;;3.55;85.20;102340.63;5012222;28;20030;-73
2022/03/28 03:38:39;;;;;;;28.58;10.23;;;;;;;3.57;85.14;102329.97;5011864;28;20029;-73
2022/03/28 03:41:05;;;;;;;22.75;8.88;;;;;;;3.60;84.58;102329.91;5011998;28;20025;-74
2022/03/28 03:43:30;;;;;;;26.73;9.80;;;;;;;3.58;84.23;102329.06;5013374;28;20038;-74
2022/03/28 03:45:56;;;;;;;23.88;9.13;;;;;;;3.53;84.34;102329.16;5013185;28;20061;-74
2022/03/28 03:48:22;;;;;;;26.85;9.75;;;;;;;3.51;84.66;102330.94;5013428;28;20052;-74
2022/03/28 03:50:47;;;;;;;22.33;9.27;;;;;;;3.50;85.02;102323.91;5011783;28;20030;-74
2022/03/28 03:53:13;;;;;;;20.98;9.15;;;;;;;3.49;84.35;102315.03;5010992;28;20105;-74
2022/03/28 03:55:38;;;;;;;23.23;8.98;;;;;;;3.48;84.59;102309.75;5013499;28;20018;-74
2022/03/28 03:58:03;;;;;;;27.70;10.93;;;;;;;3.46;84.67;102304.47;5013328;28;20034;-74
2022/03/28 04:00:29;;;;;;;25.90;11.38;;;;;;;3.47;84.54;102302.69;4997288;28;20051;-74
2022/03/28 04:02:54;;;;;;;25.00;9.65;;;;;;;3.45;84.97;102316.00;4998915;28;20013;-74
2022/03/28 04:05:19;;;;;;;24.58;9.65;;;;;;;3.45;84.85;102312.47;5011925;28;20120;-74
2022/03/28 04:07:45;;;;;;;30.45;10.60;;;;;;;3.44;84.92;102308.97;5012677;28;20033;-74
2022/03/28 04:10:10;;;;;;;22.73;8.73;;;;;;;3.41;84.50;102308.13;5010490;28;20060;-74
2022/03/28 04:12:36;;;;;;;24.27;9.70;;;;;;;3.37;84.15;102309.97;4997383;28;20026;-74
2022/03/28 04:15:02;;;;;;;25.20;10.48;;;;;;;3.36;84.17;102300.25;5013030;28;20053;-74
2022/03/28 04:17:28;;;;;;;21.83;8.68;;;;;;;3.33;84.06;102302.97;5012587;28;20107;-74
2022/03/28 04:19:54;;;;;;;24.55;10.13;;;;;;;3.31;85.23;102296.81;5011184;28;20029;-74
2022/03/28 04:22:20;;;;;;;22.20;9.38;;;;;;;3.28;84.86;102294.19;5011341;28;20029;-74
2022/03/28 04:24:45;;;;;;;22.73;9.57;;;;;;;3.24;85.16;102290.72;5012235;28;20462;-74
2022/03/28 04:27:11;;;;;;;26.77;8.88;;;;;;;3.23;85.18;102296.09;5012835;28;20033;-74
2022/03/28 04:29:36;;;;;;;22.58;7.88;;;;;;;3.23;84.24;102301.41;5002155;28;20485;-74
2022/03/28 04:32:02;;;;;;;26.13;9.80;;;;;;;3.28;84.61;102297.75;5011340;28;20029;-74
2022/03/28 04:34:27;;;;;;;25.42;8.38;;;;;;;3.31;83.71;102300.34;5011017;28;20117;-74
2022/03/28 04:36:52;;;;;;;22.73;9.30;;;;;;;3.26;84.24;102296.88;5011594;28;20049;-74
2022/03/28 04:39:18;;;;;;;25.65;9.13;;;;;;;3.21;84.48;102296.13;5012042;28;20117;-74
2022/03/28 04:41:44;;;;;;;25.00;9.25;;;;;;;3.13;84.89;102295.38;5011108;28;20030;-74
2022/03/28 04:44:09;;;;;;;24.45;10.38;;;;;;;3.07;84.86;102301.66;5012262;28;20030;-74
2022/03/28 04:46:35;;;;;;;20.98;8.43;;;;;;;3.05;84.75;102289.34;5011509;28;20038;-74
2022/03/28 04:49:00;;;;;;;32.35;9.73;;;;;;;3.03;85.06;102292.03;5012162;28;20034;-74
2022/03/28 04:51:25;;;;;;;29.85;10.55;;;;;;;3.06;85.30;102291.06;5010984;28;20049;-74
2022/03/28 04:53:51;;;;;;;24.98;8.98;;;;;;;3.06;84.63;102299.03;5010799;28;20123;-74
2022/03/28 04:56:16;;;;;;;24.20;9.05;;;;;;;3.02;84.90;102297.38;5010810;28;20036;-74
2022/03/28 04:58:41;;;;;;;25.98;10.55;;;;;;;3.00;85.03;102301.81;5012365;28;20076;-74
2022/03/28 05:01:08;;;;;;;24.60;9.88;;;;;;;2.99;85.46;102298.28;4995128;28;20026;-74
2022/03/28 05:03:33;;;;;;;24.95;10.02;;;;;;;2.98;85.44;102293.88;4998764;28;20120;-73
2022/03/28 05:05:59;;;;;;;26.35;9.60;;;;;;;2.95;85.28;102301.91;5010649;28;20068;-73
2022/03/28 05:08:24;;;;;;;29.80;9.65;;;;;;;2.91;85.09;102308.16;5011181;28;20033;-73
2022/03/28 05:10:49;;;;;;;24.98;10.45;;;;;;;2.88;85.12;102302.91;5012108;28;20041;-73
2022/03/28 05:13:15;;;;;;;27.52;10.02;;;;;;;2.89;85.73;102297.59;5011566;28;20413;-73
2022/03/28 05:15:40;;;;;;;25.58;9.93;;;;;;;2.90;85.73;102306.41;5010728;28;20029;-73
2022/03/28 05:18:05;;;;;;;28.77;9.60;;;;;;;2.87;85.53;102298.50;5010153;28;20041;-73
2022/03/28 05:20:31;;;;;;;30.65;9.52;;;;;;;2.84;84.89;102302.13;5010686;28;20531;-73
2022/03/28 05:22:56;;;;;;;27.10;9.70;;;;;;;2.81;85.37;102294.16;5011307;28;20492;-73
2022/03/28 05:25:21;;;;;;;31.40;8.88;;;;;;;2.78;85.38;102297.78;5010223;28;20053;-73
2022/03/28 05:27:47;;;;;;;28.20;10.02;;;;;;;2.76;84.88;102290.75;5009865;28;20488;-73
2022/03/28 05:30:13;;;;;;;28.23;10.52;;;;;;;2.75;85.00;102303.16;5005897;28;20030;-73
2022/03/28 05:32:39;;;;;;;24.23;9.52;;;;;;;2.78;84.90;102297.78;5009161;28;20087;-73
2022/03/28 05:35:06;;;;;;;25.60;8.77;;;;;;;2.79;85.14;102298.66;5011298;28;20026;-73
2022/03/28 05:37:32;;;;;;;24.63;9.23;;;;;;;2.77;84.85;102298.66;5011385;28;20540;-73
2022/03/28 05:39:57;;;;;;;29.33;9.20;;;;;;;2.76;85.24;102294.25;5011318;28;20067;-74
2022/03/28 05:42:23;;;;;;;31.70;10.13;;;;;;;2.74;85.48;102296.06;5011048;28;20291;-74
2022/03/28 05:44:48;;;;;;;31.98;11.23;;;;;;;2.73;85.80;102293.44;5009036;28;20022;-73
2022/03/28 05:47:13;;;;;;;38.15;10.05;;;;;;;2.73;86.02;102283.69;5009621;28;20125;-73
2022/03/28 05:49:39;;;;;;;27.67;9.43;;;;;;;2.76;85.47;102285.44;5011255;28;20065;-74
2022/03/28 05:52:07;;;;;;;26.85;9.35;;;;;;;2.78;86.31;102287.16;5011466;28;20425;-74
2022/03/28 05:54:32;;;;;;;29.83;10.07;;;;;;;2.80;86.07;102276.50;5011267;28;20097;-74
2022/03/28 05:56:58;;;;;;;30.33;10.52;;;;;;;2.83;85.45;102275.59;5007700;28;20121;-74
2022/03/28 05:59:23;;;;;;;25.63;9.45;;;;;;;2.87;85.95;102269.28;4991013;28;20286;-74
2022/03/28 06:01:49;;;;;;;25.02;10.60;;;;;;;2.91;86.57;102271.00;4988638;28;20482;-73
2022/03/28 06:04:14;;;;;;;30.13;10.55;;;;;;;2.97;86.24;102271.78;4990070;28;20033;-74
2022/03/28 06:06:39;;;;;;;25.33;9.27;;;;;;;3.02;86.94;102269.03;4990461;28;20034;-75
2022/03/28 06:09:05;;;;;;;28.15;10.23;;;;;;;3.10;87.18;102276.84;4999813;28;20025;-74
2022/03/28 06:11:30;;;;;;;28.08;11.32;;;;;;;3.20;87.53;102277.53;5009272;28;20029;-74
2022/03/28 06:13:57;;;;;;;26.40;10.68;;;;;;;3.25;87.40;102275.66;5011388;28;20030;-72
2022/03/28 06:16:23;;;;;;;27.35;11.60;;;;;;;3.28;86.91;102279.16;5011160;28;20473;-74
2022/03/28 06:18:48;;;;;;;29.85;10.70;;;;;;;3.31;86.82;102275.56;4992879;28;20398;-74
2022/03/28 06:21:14;;;;;;;26.35;10.98;;;;;;;3.36;86.93;102273.66;5011251;28;20026;-73
2022/03/28 06:23:39;;;;;;;25.63;10.68;;;;;;;3.43;88.12;102277.97;5005824;28;20026;-74
2022/03/28 06:26:05;;;;;;;28.20;10.45;;;;;;;3.49;87.53;102269.00;4991638;28;20022;-73
2022/03/28 06:28:30;;;;;;;30.00;9.65;;;;;;;3.55;88.20;102270.66;4992634;28;20037;-73
2022/03/28 06:30:57;;;;;;;28.85;11.10;;;;;;;3.63;88.89;102276.66;4994953;28;20049;-73
2022/03/28 06:33:22;;;;;;;33.08;11.60;;;;;;;3.69;87.94;102271.22;4994061;28;20470;-73
2022/03/28 06:35:48;;;;;;;31.55;10.98;;;;;;;3.79;88.89;102270.13;5009290;28;20066;-73
2022/03/28 06:38:13;;;;;;;27.00;10.25;;;;;;;3.88;88.86;102270.81;5013878;28;20109;-73
2022/03/28 06:40:38;;;;;;;30.05;11.15;;;;;;;4.01;90.03;102280.25;5013489;28;20084;-73
2022/03/28 06:43:07;;;;;;;29.95;10.82;;;;;;;4.11;89.45;102279.13;5013934;28;20034;-73
2022/03/28 06:45:34;;;;;;;28.75;10.38;;;;;;;4.18;88.74;102280.75;5013726;28;20033;-73
2022/03/28 06:47:59;;;;;;;27.90;10.20;;;;;;;4.26;88.08;102283.25;5012814;28;20034;-73
2022/03/28 06:50:26;;;;;;;30.92;11.38;;;;;;;4.33;88.40;102271.53;5013360;28;20465;-73
2022/03/28 06:52:53;;;;;;;29.73;10.95;;;;;;;4.42;88.76;102275.72;5014364;28;20505;-73
2022/03/28 06:55:19;;;;;;;33.90;12.55;;;;;;;4.53;90.02;102264.84;5013696;28;20044;-73
2022/03/28 06:57:44;;;;;;;30.85;11.05;;;;;;;4.63;90.57;102260.16;5012626;28;20425;-73
2022/03/28 07:00:11;;;;;;;33.05;12.27;;;;;;;4.72;90.49;102266.09;5020896;28;20037;-73
2022/03/28 07:02:39;;;;;;;33.58;11.85;;;;;;;4.80;90.96;102249.94;4990091;28;20030;-73
2022/03/28 07:05:06;;;;;;;33.63;11.13;;;;;;;4.88;91.66;102250.59;4993412;28;20046;-73
2022/03/28 07:07:46;;;;;;;31.52;12.55;;;;;;;4.97;91.23;102259.28;5008960;28;20397;-75
2022/03/28 07:10:12;;;;;;;32.67;12.38;;;;;;;5.05;90.86;102255.47;5014268;28;20129;-76
2022/03/28 07:12:38;;;;;;;30.98;11.07;;;;;;;5.12;90.62;102253.50;5014235;28;20036;-74
2022/03/28 07:15:05;;;;;;;35.58;14.13;;;;;;;5.21;90.80;102253.25;5010299;28;20096;-74
2022/03/28 07:17:33;;;;;;;36.97;12.95;;;;;;;5.30;90.93;102256.56;4999143;28;20022;-74
2022/03/28 07:19:58;;;;;;;32.35;13.15;;;;;;;5.38;91.40;102246.56;4983246;28;20027;-74
2022/03/28 07:22:23;;;;;;;34.03;13.18;;;;;;;5.44;90.75;102246.38;4994612;28;20036;-74
2022/03/28 07:24:48;;;;;;;35.78;14.32;;;;;;;5.51;90.20;102245.28;4990492;28;20036;-74
2022/03/28 07:27:14;;;;;;;37.72;13.63;;;;;;;5.60;89.78;102239.66;4995141;28;20026;-74
2022/03/28 07:29:43;;;;;;;35.17;14.10;;;;;;;5.71;90.06;102238.47;4993680;28;20036;-74
2022/03/28 07:32:08;;;;;;;30.85;14.45;;;;;;;5.80;89.51;102238.22;4991861;28;20508;-74
2022/03/28 07:34:34;;;;;;;35.08;13.95;;;;;;;5.87;89.07;102237.09;4991967;28;20034;-74
2022/03/28 07:37:02;;;;;;;33.25;13.52;;;;;;;5.98;88.46;102233.25;4991291;28;20021;-75
2022/03/28 07:39:28;;;;;;;35.47;13.80;;;;;;;6.04;88.43;102231.25;4975500;28;20129;-75
2022/03/28 07:41:54;;;;;;;34.33;14.07;;;;;;;6.13;88.59;102227.41;4992863;28;20125;-74
2022/03/28 07:44:19;;;;;;;33.78;14.02;;;;;;;6.21;88.32;102217.34;4994183;28;20914;-74
2022/03/28 07:46:45;;;;;;;32.97;14.43;;;;;;;6.32;87.71;102213.47;5003217;28;20026;-75
2022/03/28 07:49:11;;;;;;;36.72;15.43;;;;;;;6.40;87.66;102208.72;5010711;28;20040;-74
2022/03/28 07:51:37;;;;;;;38.50;14.98;;;;;;;6.46;87.17;102200.50;5011709;28;20135;-74
2022/03/28 07:54:02;;;;;;;35.05;15.43;;;;;;;6.54;87.33;102203.78;5006819;28;20042;-74
2022/03/28 07:56:28;;;;;;;31.92;15.10;;;;;;;6.60;87.27;102216.94;5011379;28;20396;-74
2022/03/28 07:58:53;;;;;;;33.17;15.13;;;;;;;6.67;86.75;102208.72;5002303;28;20030;-74
2022/03/28 08:01:18;;;;;;;37.05;16.38;;;;;;;6.74;86.91;102207.56;5010216;28;20116;-74
2022/03/28 08:03:44;;;;;;;34.22;15.93;;;;;;;6.79;86.55;102203.81;5005114;28;20041;-74
2022/03/28 08:06:09;;;;;;;35.88;16.05;;;;;;;6.88;86.83;102204.38;5010715;28;20081;-74
2022/03/28 08:08:35;;;;;;;38.47;17.20;;;;;;;6.94;86.21;102205.06;5011311;28;20041;-74
2022/03/28 08:11:01;;;;;;;33.40;16.60;;;;;;;7.01;85.42;102211.03;5011341;28;20029;-74
2022/03/28 08:13:26;;;;;;;28.92;14.25;;;;;;;7.07;85.26;102204.59;5011277;28;20506;-74
2022/03/28 08:15:52;;;;;;;33.95;15.70;;;;;;;7.12;85.17;102198.16;5008820;28;20044;-74
2022/03/28 08:18:17;;;;;;;36.65;15.70;;;;;;;7.23;86.00;102196.88;5011692;28;20655;-75
2022/03/28 08:20:43;;;;;;;34.47;16.67;;;;;;;7.30;85.10;102196.56;5011562;28;20161;-75
2022/03/28 08:23:09;;;;;;;37.47;17.00;;;;;;;7.38;84.90;102198.09;5010332;28;20057;-74
2022/03/28 08:25:35;;;;;;;32.13;16.65;;;;;;;7.42;84.53;102195.22;5009916;28;20045;-74
2022/03/28 08:28:01;;;;;;;37.40;18.35;;;;;;;7.48;84.41;102191.44;5011867;28;20030;-74
2022/03/28 08:30:26;;;;;;;35.75;17.27;;;;;;;7.53;84.38;102186.81;5010992;28;20044;-74
2022/03/28 08:32:51;;;;;;;43.58;17.33;;;;;;;7.60;84.21;102188.31;5009293;28;20481;-74
2022/03/28 08:35:17;;;;;;;43.15;18.83;;;;;;;7.66;83.42;102181.84;5010847;28;20045;-77
2022/03/28 08:37:43;;;;;;;34.53;15.82;;;;;;;7.72;83.11;102178.94;5008236;28;20548;-75
2022/03/28 08:40:09;;;;;;;36.65;19.88;;;;;;;7.78;83.21;102175.13;5009421;28;20058;-75
2022/03/28 08:42:34;;;;;;;34.28;19.08;;;;;;;7.85;83.55;102176.63;5010576;28;20041;-75
2022/03/28 08:44:59;;;;;;;35.33;17.75;;;;;;;7.90;83.06;102179.97;5010413;28;20485;-75
2022/03/28 08:47:26;;;;;;;33.67;17.90;;;;;;;7.97;83.37;102178.78;5010838;28;20057;-74
2022/03/28 08:49:53;;;;;;;44.83;20.33;;;;;;;8.03;82.21;102180.34;5010866;28;20080;-74
2022/03/28 08:52:20;;;;;;;35.42;19.17;;;;;;;8.14;83.67;102177.22;5010111;28;20046;-75
2022/03/28 08:54:46;;;;;;;37.33;19.65;;;;;;;8.20;82.12;102172.50;5009741;28;20761;-75
2022/03/28 08:57:13;;;;;;;39.47;18.77;;;;;;;8.29;82.21;102170.38;5009333;28;20068;-74
2022/03/28 08:59:38;;;;;;;40.50;21.25;;;;;;;8.35;82.08;102165.59;5007363;28;20034;-74
2022/03/28 09:02:06;;;;;;;41.75;20.38;;;;;;;8.40;82.19;102168.97;5008398;28;20104;-76
2022/03/28 09:04:35;;;;;;;37.10;20.50;;;;;;;8.51;82.19;102165.00;5003520;28;20057;-70
2022/03/28 09:07:00;;;;;;;39.28;22.15;;;;;;;8.61;82.49;102177.06;5008755;28;20072;-69
2022/03/28 09:09:28;;;;;;;39.67;19.67;;;;;;;8.73;82.60;102176.50;5007090;28;20045;-70
2022/03/28 09:11:56;;;;;;;40.15;21.50;;;;;;;8.83;81.95;102170.72;5010428;28;20124;-69
2022/03/28 09:14:33;;;;;;;43.30;24.73;;;;;;;8.92;79.45;102171.19;5008589;28;20025;-70
2022/03/28 09:17:03;;;;;;;38.58;23.63;;;;;;;8.98;79.02;102164.69;5005472;28;20030;-70
2022/03/28 09:19:49;;;;;;;47.65;24.35;;;;;;;9.02;79.54;102160.91;5009321;28;20030;-70
2022/03/28 09:22:20;;;;;;;43.40;23.88;;;;;;;9.09;79.35;102165.06;5010124;28;20057;-70
2022/03/28 09:24:47;;;;;;;42.75;23.02;;;;;;;9.14;78.92;102161.31;5009864;28;20030;-70
2022/03/28 09:27:23;;;;;;;41.17;20.90;;;;;;;9.19;79.03;102157.44;5009153;28;20033;-70
2022/03/28 09:30:10;;;;;;;35.78;18.92;;;;;;;9.22;78.58;102165.38;5007155;28;20042;-70
2022/03/28 09:32:40;;;;;;;33.05;18.40;;;;;;;9.25;77.49;102161.66;5005789;28;20037;-69
2022/03/28 09:35:20;;;;;;;40.15;20.90;;;;;;;9.30;78.94;102159.66;5013353;28;20381;-69
2022/03/28 09:38:04;;;;;;;;;;;;;;;9.34;79.72;102158.56;5008458;28;20030;-69
2022/03/28 09:40:43;;;;;;;36.95;20.77;;;;;;;9.43;79.22;102155.44;5009547;28;20085;-69
2022/03/28 09:43:16;;;;;;;;;;;;;;;9.47;79.36;102147.22;5009837;28;20127;-69
2022/03/28 09:45:43;;;;;;;36.42;18.90;;;;;;;9.59;78.67;102139.47;5005394;28;19922;-69
2022/03/28 09:48:15;;;;;;;37.15;19.73;;;;;;;9.68;77.60;102137.25;5011784;28;20040;-69
2022/03/28 09:50:43;;;;;;;39.75;19.55;;;;;;;9.77;77.94;102136.81;5005890;28;20029;-69
2022/03/28 09:53:20;;;;;;;34.72;19.30;;;;;;;9.83;77.91;102131.16;5008423;28;20046;-69
2022/03/28 09:55:47;;;;;;;35.90;18.17;;;;;;;9.86;77.44;102131.00;5009571;28;20026;-69
2022/03/28 09:58:48;;;;;;;43.88;22.00;;;;;;;10.00;77.76;102129.44;5009054;28;20068;-70
2022/03/28 10:01:22;;;;;;;39.40;22.60;;;;;;;10.14;76.93;102122.41;5009486;28;20026;-69
2022/03/28 10:03:50;;;;;;;36.95;21.73;;;;;;;10.29;77.09;102122.56;5007365;28;20032;-69
2022/03/28 10:06:16;;;;;;;38.45;22.38;;;;;;;10.36;75.17;102123.16;5008267;28;20042;-69
2022/03/28 10:08:43;;;;;;;39.67;21.67;;;;;;;10.53;75.08;102119.56;5010549;28;20519;-69
2022/03/28 10:11:10;;;;;;;39.38;22.77;;;;;;;10.58;74.44;102120.22;5011619;28;20030;-69
2022/03/28 10:13:36;;;;;;;43.10;24.00;;;;;;;10.65;74.57;102117.13;5009676;28;20030;-69
2022/03/28 10:16:02;;;;;;;40.80;23.42;;;;;;;10.75;74.07;102119.31;5007064;28;20419;-74
2022/03/28 10:18:32;;;;;;;43.15;25.20;;;;;;;10.83;72.14;102115.28;5008256;28;20489;-75
2022/03/28 10:21:01;;;;;;;40.00;23.38;;;;;;;10.87;71.08;102113.28;5009495;28;20041;-75
2022/03/28 10:23:33;;;;;;;41.03;25.08;;;;;;;10.96;71.14;102109.22;5003580;28;20034;-75
2022/03/28 10:25:59;;;;;;;42.45;24.17;;;;;;;10.99;69.77;102106.34;5009218;28;20036;-75
2022/03/28 10:28:25;;;;;;;43.25;23.40;;;;;;;11.01;70.76;102108.00;5009098;28;20041;-75
2022/03/28 10:31:07;;;;;;;39.55;23.02;;;;;;;11.06;71.06;102106.91;5009210;28;20022;-75
2022/03/28 10:33:33;;;;;;;38.33;21.77;;;;;;;11.11;71.80;102094.94;5009270;28;20034;-74
2022/03/28 10:36:02;;;;;;;44.03;23.80;;;;;;;11.20;69.71;102085.47;5008483;28;20084;-74
2022/03/28 10:38:28;;;;;;;41.72;23.33;;;;;;;11.30;69.51;102089.38;5009215;28;20049;-74
2022/03/28 10:40:56;;;;;;;36.83;22.30;;;;;;;11.35;68.80;102081.91;5008190;28;20414;-74
2022/03/28 10:43:25;;;;;;;42.25;22.67;;;;;;;11.48;67.59;102073.09;5008877;28;20104;-74
2022/03/28 10:46:02;;;;;;;42.08;24.15;;;;;;;11.61;67.72;102070.59;5009318;28;20022;-74
2022/03/28 10:48:40;;;;;;;42.22;23.45;;;;;;;11.68;66.54;102067.47;5006650;28;20041;-74
2022/03/28 10:51:09;;;;;;;39.00;22.13;;;;;;;11.71;66.34;102069.97;5009569;28;20022;-74
2022/03/28 10:53:39;;;;;;;39.53;22.10;;;;;;;11.77;66.31;102065.16;5009070;28;20033;-74
2022/03/28 10:56:17;;;;;;;39.30;21.67;;;;;;;11.88;65.51;102057.31;5009090;28;20500;-74
2022/03/28 10:58:57;;;;;;;36.72;23.10;;;;;;;11.96;65.87;102054.19;5007855;28;20049;-74
2022/03/28 11:01:43;;;;;;;36.92;20.10;;;;;;;11.96;64.43;102065.88;5006742;28;20498;-74
2022/03/28 11:04:11;;;;;;;37.70;21.20;;;;;;;12.00;63.68;102067.38;5008981;28;20144;-74
2022/03/28 11:07:03;;;;;;;36.55;20.50;;;;;;;12.01;64.29;102058.34;5005616;28;20034;-74
2022/03/28 11:09:51;;;;;;;36.63;21.23;;;;;;;12.09;65.85;102059.72;5007525;28;20436;-74
2022/03/28 11:12:28;;;;;;;34.33;21.17;;;;;;;12.16;65.13;102048.47;5008542;28;20037;-74
2022/03/28 11:15:00;;;;;;;35.40;22.05;;;;;;;12.34;66.23;102048.31;5010206;28;20113;-74
2022/03/28 11:17:29;;;;;;;34.63;20.10;;;;;;;12.33;65.19;102046.56;5010630;28;20060;-76
2022/03/28 11:19:57;;;;;;;37.10;20.60;;;;;;;12.42;63.75;102046.00;5011501;28;20117;-73
2022/03/28 11:22:47;;;;;;;34.75;21.02;;;;;;;12.47;65.06;102046.59;5009016;28;20414;-75